Aérodrome :







RETROUVEZ-NOUS SUR...

 
LOGIN :

S'inscrire | Disclaimer

   EN    FR    IT 

 









Légende :    VFR   VFR Marginal   IFR   IFR Intensif   IFR Très Intensif
Visi : 
Plafond : 
>= 8 km
>= 3000ft
5 à 8 km
1000 à 3000 ft
1500m à 5 km
500 à 1000 ft
800 à 1500m
200 à 500 ft
< 800m
< 200 ft
Symboles :   Orages  Brouillard  Fortes neiges  Fortes précipitations  Vent > 20 kt






- Altitude de l'aérodrome : 270 ft
- Code IATA : YMX


CYMX - Montreal International Mirabel

DERNIER METAR :
  • 031400Z 36004KT 350V070 4SM BR OVC005 11/10 A2962 RMK ST8 SLP033

METARs EXPIRÉS :
  • 031330Z VRB02KT 3SM BR BKN004 OVC010 10/10 A2962 RMK SF7ST1 SLP033
  • 031300Z 06003KT 350V090 2 1/2SM -DZ BR BKN004 OVC010 10/09 A2962 RMK SF7ST1 SLP035
  • 031200Z 03004KT 350V080 1 1/2SM -DZ BR BKN004 OVC008 10/09 A2964 RMK FG2SF5ST1 SLP040
  • 031137Z 05005KT 350V090 2 1/2SM -DZ BR OVC004 10/09 A2964 RMK ST8 SLP040

TAF TAF CYMX
Valide du 03 à 12h jusqu'au 04 à 12h UTC


031145Z 0312/0412 05005KT 2SM -DZ -RA BR OVC004
TEMPO 0312/0314 6SM BR OVC008
PROB30 0312/0314 OVC003
FM031400 VRB03KT 4SM -RA BR OVC006
TEMPO 0314/0319 P6SM NSW SCT006 OVC020
FM031900 25008KT P6SM SCT015 OVC030
TEMPO 0319/0401 P6SM -SHRA BKN015 OVC030
FM040100 VRB03KT P6SM BKN030
FM040600 VRB03KT P6SM FEW060
PROB30 0406/0411 2SM BR RMK NXT FCST BY 031800Z
FIR CZUL / Amérique du Nord



MET'MAP, la Météo Aéronautique d'un coup d'oeil ! - Copyright ORBIFLY Décembre 2007 - Disclaimer

ORBIFLY MET'MAP TEAM :

Programmation & Développement : Alexandra Zaïnal
Sur une idée originale de : Baudouin d'Aumeries
Assistance à la programmation : Marc-Olivier Méhu
Soutien technique & logistique : Manuel Goepfert

Contact : metmap@orbifly.com




SOURCES & CREDITS :

   NOAA